首页
METAR-TAF:

METAR-TAF

机场 :

哈尔滨太平国际机场

哈尔滨, 中华人民共和国

纬度: 45-45N, 经度: 126-46E, 海拔: 143米

当前天气观测

该预报发布于42分钟前的08:00 UTC
风速10节,风向西
温度 2°C
湿度 25%
气压 1017 hPa
能见度10公里或以上
1500米以下无云,无积雨云

METAR: ZYHB 170800Z 26005MPS CAVOK 02/M16 Q1017 NOSIG

时间: 16:42 (08:42 UTC)

预报

该预报发布于5小时和41分钟前的03:01 UTC
预报有效从17日的 06点(UTC)到 18日的 06点(UTC)
风速8节,风向西转西南
能見度: 6000

TAF: ZYHB 170301Z 1706/1806 25004MPS 6000 NSC TX01/1706Z TNM11/21Z

超过4000个机场的气象观测和天气预报(METAR&TAF报告)。

可查询的气象台以黄色和红色小点在地图上表示。

将鼠标移到小点上方,可查看气象台名称。

然后点击查看天气观测和预报。

如需切换地图:点击带黑十字的绿色按钮放大地图;点击带横线的绿色按钮缩小地图;或者点击绿色箭头查看邻近地区的地图。


METAR-TAF: